10/07 10:41 更新

弱い雨が降っている
600ftに雲が散在
1,500ftに雲が散在
2,000ftに雲が多い

地上風: 320°6kt

上空風(熊谷 10:50更新)
13,000ft: 230° 58kt
10,000ft: 180° 41kt
 7,000ft: 180° 28kt
 3,000ft: 70° 8kt

地上: 12℃
上空: 1℃

日没: 17:17

実況天気図


予想天気図


RJTJ 070141Z 32006KT 4000 -SHRA BR SCT006 SCT015 BKN020 12/11 Q1018 RMK 3ST006 3CU015 6CU020 A3007=

GPV気象予報
気象庁
日本気象協会

太郎衛門橋テレメータ水位(11mでDZ冠水)

skydive.jp